Ilona — VJN3432 — position and weather

sailwx.info

Track history (hours):
 
Tides and Currents Weather Stations Pressure Air Temp Water Temp Dewpoint Dewpoint Depression Visibility Wind Speed Wind Dir Waves Ship Positions

Ilona

Last reported at 2015-Jul-28 20:07 UTC. Time now 2015-Jul-28 21:49 UTC.
Position N 43°32' E 007°03'.

Length 74 m; draft 3.7 m.

Type: Pleasure craft. MMSI: 503514000.

Date/timePositionNaut miles runAvg speedWind from/ knotsBaromVisibWave heightAir tempDewpointWater temp
2015-Jul-28 20:07N 43°32' E 007°03'0 0.0
2015-Jul-28 19:31N 43°32' E 007°03'0 0.0
2015-Jul-28 18:31N 43°32' E 007°03'0 0.0
2015-Jul-28 17:32N 43°32' E 007°03'0 0.0
2015-Jul-28 16:31N 43°32' E 007°03'0 0.0
2015-Jul-28 15:19N 43°32' E 007°03'0 0.0
2015-Jul-28 14:31N 43°32' E 007°03'0 0.0
2015-Jul-28 13:26N 43°32' E 007°03'0 0.0
2015-Jul-28 12:07N 43°32' E 007°03'0 0.0
2015-Jul-28 08:13N 43°32' E 007°03'0 0.0
2015-Jul-28 07:32N 43°32' E 007°03'0 0.0
2015-Jul-28 06:31N 43°32' E 007°03'7 6.8
2015-Jul-28 05:33N 43°35' E 007°11'10 0.7
2015-Jul-27 14:07N 43°42' E 007°21'0 0.4
2015-Jul-27 13:23N 43°42' E 007°21'0 0.0
2015-Jul-27 07:11N 43°42' E 007°21'2 1.4
2015-Jul-27 05:33N 43°40' E 007°20'1312.8
2015-Jul-27 04:33N 43°31' E 007°07'4 4.1
2015-Jul-27 03:33N 43°32' E 007°01'0 0.0
2015-Jul-27 02:28N 43°32' E 007°01'0 0.0
2015-Jul-27 01:28N 43°32' E 007°01'0 0.0
2015-Jul-27 00:31N 43°32' E 007°01'0 0.0
2015-Jul-26 23:31N 43°32' E 007°01'0 0.0
2015-Jul-26 22:33N 43°32' E 007°01'0 0.0
2015-Jul-26 21:33N 43°32' E 007°01'0 0.0
2015-Jul-26 20:33N 43°32' E 007°01'0 0.0
2015-Jul-26 19:32N 43°32' E 007°01'2 0.1
2015-Jul-26 06:33N 43°31' E 007°02'1 1.2
2015-Jul-26 05:23N 43°32' E 007°04'1 0.9
2015-Jul-26 04:33N 43°32' E 007°05'4 3.1
2015-Jul-26 03:22N 43°34' E 007°08'0 0.0
2015-Jul-26 02:28N 43°34' E 007°08'0 0.0
2015-Jul-26 01:28N 43°34' E 007°08'0 0.0
2015-Jul-26 00:28N 43°34' E 007°08'0 0.0
2015-Jul-25 23:28N 43°34' E 007°08'0 0.0
2015-Jul-25 22:28N 43°34' E 007°08'0 0.0
2015-Jul-25 21:28N 43°34' E 007°08'0 0.0
2015-Jul-25 20:28N 43°34' E 007°08'0 0.0
2015-Jul-25 19:28N 43°34' E 007°08'0 2.3
2015-Jul-25 19:28N 43°34' E 007°08'1 1.1
2015-Jul-25 18:33N 43°35' E 007°08'1 5.4
2015-Jul-25 18:22N 43°34' E 007°08'0 0.0
2015-Jul-25 17:29N 43°34' E 007°08'0 0.9
2015-Jul-25 17:28N 43°34' E 007°08'0 0.0
2015-Jul-25 16:29N 43°35' E 007°08'0 0.9
2015-Jul-25 16:28N 43°35' E 007°08'1 1.0
2015-Jul-25 15:33N 43°35' E 007°08'1 9.6
2015-Jul-25 15:28N 43°35' E 007°08'0 0.0
2015-Jul-25 14:22N 43°35' E 007°08'0 1.1
2015-Jul-25 14:20N 43°34' E 007°08'0 0.0
2015-Jul-25 13:28N 43°34' E 007°08'0 0.4
2015-Jul-25 13:26N 43°35' E 007°08'0 0.0
2015-Jul-25 12:31N 43°34' E 007°08'0 0.5
2015-Jul-25 12:28N 43°35' E 007°08'0 0.0
2015-Jul-25 11:33N 43°35' E 007°08'0 3.6
2015-Jul-25 11:33N 43°34' E 007°08'0 0.5
2015-Jul-25 11:28N 43°35' E 007°08'0 0.2
2015-Jul-25 10:30N 43°35' E 007°08'0 3.7
2015-Jul-25 10:30N 43°35' E 007°08'0 0.7
2015-Jul-25 10:28N 43°35' E 007°08'0 0.5
2015-Jul-25 09:33N 43°35' E 007°08'0 2.8
2015-Jul-25 09:24N 43°35' E 007°08'0 0.1
2015-Jul-25 09:16N 43°35' E 007°08'1 1.0
2015-Jul-25 08:32N 43°35' E 007°08'129.5
2015-Jul-25 08:30N 43°35' E 007°08'0 0.4
2015-Jul-25 08:28N 43°35' E 007°08'0 0.1
2015-Jul-25 07:33N 43°35' E 007°08'5 5.1
2015-Jul-25 06:30N 43°32' E 007°02'0 0.1
2015-Jul-25 05:32N 43°32' E 007°01'0 0.0
2015-Jul-25 04:25N 43°32' E 007°02'0 0.0
2015-Jul-25 03:19N 43°32' E 007°01'0 0.0
2015-Jul-25 02:33N 43°32' E 007°02'0 0.0
2015-Jul-25 01:32N 43°32' E 007°02'0 0.0
2015-Jul-25 00:13N 43°32' E 007°02'0 0.0
2015-Jul-24 23:30N 43°32' E 007°02'0 0.0
2015-Jul-24 22:19N 43°32' E 007°02'0 0.0
2015-Jul-24 21:33N 43°32' E 007°02'0 0.0
2015-Jul-24 20:31N 43°32' E 007°02'0 0.0
2015-Jul-24 19:25N 43°32' E 007°01'0 0.0
2015-Jul-24 18:34N 43°32' E 007°01'0 0.0
2015-Jul-24 17:31N 43°32' E 007°01'0 0.0
2015-Jul-24 16:29N 43°32' E 007°01'0 0.0
2015-Jul-24 15:33N 43°32' E 007°01'0 0.0
2015-Jul-24 14:26N 43°32' E 007°01'0 0.0
2015-Jul-24 13:34N 43°32' E 007°01'4 4.1
2015-Jul-24 12:33N 43°32' E 007°07'1410.4
2015-Jul-24 11:14N 43°42' E 007°20'0 0.0
2015-Jul-24 10:09N 43°42' E 007°20'0 0.0
2015-Jul-23 22:07N 43°42' E 007°20'0 0.0
2015-Jul-23 20:24N 43°42' E 007°20'0 0.0
2015-Jul-23 19:09N 43°42' E 007°20'1 1.5
2015-Jul-23 18:33N 43°41' E 007°21'1414.1
2015-Jul-23 17:33N 43°32' E 007°07'2 3.4
2015-Jul-23 17:03N 43°34' E 007°07'1 1.1
2015-Jul-23 16:33N 43°34' E 007°06'0 0.0
2015-Jul-23 15:33N 43°34' E 007°06'0 0.0
2015-Jul-23 14:33N 43°34' E 007°06'0 0.0
2015-Jul-23 13:33N 43°34' E 007°06'0 0.0
2015-Jul-23 12:33N 43°34' E 007°06'0 0.0
2015-Jul-23 11:33N 43°34' E 007°06'0 0.1
2015-Jul-23 11:30N 43°34' E 007°06'0 0.0
2015-Jul-23 10:33N 43°34' E 007°06'0 0.0
2015-Jul-23 10:14N 43°34' E 007°06'0 0.0
2015-Jul-23 09:33N 43°34' E 007°06'0 4.2
2015-Jul-23 09:33N 43°34' E 007°06'0 0.0
2015-Jul-23 08:33N 43°34' E 007°06'0 0.0
2015-Jul-23 07:33N 43°34' E 007°06'0 0.0
2015-Jul-23 07:15N 43°34' E 007°06'3 3.9
2015-Jul-23 06:31N 43°32' E 007°03'0 0.0
2015-Jul-23 05:25N 43°32' E 007°03'0 0.0
2015-Jul-23 04:31N 43°32' E 007°03'0 0.0
2015-Jul-23 03:31N 43°32' E 007°03'0 0.0
2015-Jul-23 02:31N 43°32' E 007°03'0 0.0
2015-Jul-23 01:31N 43°32' E 007°03'0 0.0
2015-Jul-23 00:25N 43°32' E 007°03'0 0.0
2015-Jul-22 23:31N 43°32' E 007°03'0 0.0
2015-Jul-22 22:31N 43°32' E 007°03'0 0.0
2015-Jul-22 21:31N 43°32' E 007°03'0 0.0
2015-Jul-22 20:31N 43°32' E 007°03'0 0.0
2015-Jul-22 18:25N 43°32' E 007°03'0 0.0
2015-Jul-22 16:31N 43°32' E 007°03'0 0.0
2015-Jul-22 11:25N 43°32' E 007°03'0 0.0
2015-Jul-22 10:25N 43°32' E 007°03'0 0.0
2015-Jul-22 09:25N 43°32' E 007°03'0 0.0
2015-Jul-22 08:31N 43°32' E 007°03'0 0.0
2015-Jul-22 07:25N 43°32' E 007°03'0 0.0
2015-Jul-22 06:25N 43°32' E 007°03'0 0.0
2015-Jul-22 05:25N 43°32' E 007°03'0 0.0
2015-Jul-22 03:25N 43°32' E 007°03'0 0.0
2015-Jul-22 02:25N 43°32' E 007°03'0 0.1
2015-Jul-22 01:31N 43°32' E 007°03'0 0.0
2015-Jul-22 00:31N 43°32' E 007°03'0 0.0
2015-Jul-21 23:31N 43°32' E 007°03'0 0.0
2015-Jul-21 22:25N 43°32' E 007°03'1 1.7
2015-Jul-21 21:33N 43°32' E 007°05'1212.4
2015-Jul-21 20:33N 43°39' E 007°19'4 3.4
2015-Jul-21 19:31N 43°42' E 007°21'0 0.0
2015-Jul-21 18:31N 43°42' E 007°21'0 0.0
2015-Jul-21 00:16N 43°42' E 007°21'3 0.1
2015-Jul-19 15:13N 43°42' E 007°17'0 0.0
2015-Jul-19 14:25N 43°42' E 007°17'0 0.0
2015-Jul-19 13:28N 43°42' E 007°17'2 1.9
2015-Jul-19 12:33N 43°40' E 007°19'  
Track history (hours):
 
Tides and Currents Weather Stations Pressure Air Temp Water Temp Dewpoint Dewpoint Depression Visibility Wind Speed Wind Dir Waves Ship Positions

Ilona

Last reported at 2015-Jul-28 20:07 UTC. Time now 2015-Jul-28 21:49 UTC.
Position N 43°32' E 007°03'.

Length 74 m; draft 3.7 m.

Type: Pleasure craft. MMSI: 503514000.

Date/timePositionNaut miles runAvg speedWind from/ knotsBaromVisibWave heightAir tempDewpointWater temp
2015-Jul-28 20:07N 43°32' E 007°03'0 0.0
2015-Jul-28 19:31N 43°32' E 007°03'0 0.0
2015-Jul-28 18:31N 43°32' E 007°03'0 0.0
2015-Jul-28 17:32N 43°32' E 007°03'0 0.0
2015-Jul-28 16:31N 43°32' E 007°03'0 0.0
2015-Jul-28 15:19N 43°32' E 007°03'0 0.0
2015-Jul-28 14:31N 43°32' E 007°03'0 0.0
2015-Jul-28 13:26N 43°32' E 007°03'0 0.0
2015-Jul-28 12:07N 43°32' E 007°03'0 0.0
2015-Jul-28 08:13N 43°32' E 007°03'0 0.0
2015-Jul-28 07:32N 43°32' E 007°03'0 0.0
2015-Jul-28 06:31N 43°32' E 007°03'7 6.8
2015-Jul-28 05:33N 43°35' E 007°11'10 0.7
2015-Jul-27 14:07N 43°42' E 007°21'0 0.4
2015-Jul-27 13:23N 43°42' E 007°21'0 0.0
2015-Jul-27 07:11N 43°42' E 007°21'2 1.4
2015-Jul-27 05:33N 43°40' E 007°20'1312.8
2015-Jul-27 04:33N 43°31' E 007°07'4 4.1
2015-Jul-27 03:33N 43°32' E 007°01'0 0.0
2015-Jul-27 02:28N 43°32' E 007°01'0 0.0
2015-Jul-27 01:28N 43°32' E 007°01'0 0.0
2015-Jul-27 00:31N 43°32' E 007°01'0 0.0
2015-Jul-26 23:31N 43°32' E 007°01'0 0.0
2015-Jul-26 22:33N 43°32' E 007°01'0 0.0
2015-Jul-26 21:33N 43°32' E 007°01'0 0.0
2015-Jul-26 20:33N 43°32' E 007°01'0 0.0
2015-Jul-26 19:32N 43°32' E 007°01'2 0.1
2015-Jul-26 06:33N 43°31' E 007°02'1 1.2
2015-Jul-26 05:23N 43°32' E 007°04'1 0.9
2015-Jul-26 04:33N 43°32' E 007°05'4 3.1
2015-Jul-26 03:22N 43°34' E 007°08'0 0.0
2015-Jul-26 02:28N 43°34' E 007°08'0 0.0
2015-Jul-26 01:28N 43°34' E 007°08'0 0.0
2015-Jul-26 00:28N 43°34' E 007°08'0 0.0
2015-Jul-25 23:28N 43°34' E 007°08'0 0.0
2015-Jul-25 22:28N 43°34' E 007°08'0 0.0
2015-Jul-25 21:28N 43°34' E 007°08'0 0.0
2015-Jul-25 20:28N 43°34' E 007°08'0 0.0
2015-Jul-25 19:28N 43°34' E 007°08'0 2.3
2015-Jul-25 19:28N 43°34' E 007°08'1 1.1
2015-Jul-25 18:33N 43°35' E 007°08'1 5.4
2015-Jul-25 18:22N 43°34' E 007°08'0 0.0
2015-Jul-25 17:29N 43°34' E 007°08'0 0.9
2015-Jul-25 17:28N 43°34' E 007°08'0 0.0
2015-Jul-25 16:29N 43°35' E 007°08'0 0.9
2015-Jul-25 16:28N 43°35' E 007°08'1 1.0
2015-Jul-25 15:33N 43°35' E 007°08'1 9.6
2015-Jul-25 15:28N 43°35' E 007°08'0 0.0
2015-Jul-25 14:22N 43°35' E 007°08'0 1.1
2015-Jul-25 14:20N 43°34' E 007°08'0 0.0
2015-Jul-25 13:28N 43°34' E 007°08'0 0.4
2015-Jul-25 13:26N 43°35' E 007°08'0 0.0
2015-Jul-25 12:31N 43°34' E 007°08'0 0.5
2015-Jul-25 12:28N 43°35' E 007°08'0 0.0
2015-Jul-25 11:33N 43°35' E 007°08'0 3.6
2015-Jul-25 11:33N 43°34' E 007°08'0 0.5
2015-Jul-25 11:28N 43°35' E 007°08'0 0.2
2015-Jul-25 10:30N 43°35' E 007°08'0 3.7
2015-Jul-25 10:30N 43°35' E 007°08'0 0.7
2015-Jul-25 10:28N 43°35' E 007°08'0 0.5
2015-Jul-25 09:33N 43°35' E 007°08'0 2.8
2015-Jul-25 09:24N 43°35' E 007°08'0 0.1
2015-Jul-25 09:16N 43°35' E 007°08'1 1.0
2015-Jul-25 08:32N 43°35' E 007°08'129.5
2015-Jul-25 08:30N 43°35' E 007°08'0 0.4
2015-Jul-25 08:28N 43°35' E 007°08'0 0.1
2015-Jul-25 07:33N 43°35' E 007°08'5 5.1
2015-Jul-25 06:30N 43°32' E 007°02'0 0.1
2015-Jul-25 05:32N 43°32' E 007°01'0 0.0
2015-Jul-25 04:25N 43°32' E 007°02'0 0.0
2015-Jul-25 03:19N 43°32' E 007°01'0 0.0
2015-Jul-25 02:33N 43°32' E 007°02'0 0.0
2015-Jul-25 01:32N 43°32' E 007°02'0 0.0
2015-Jul-25 00:13N 43°32' E 007°02'0 0.0
2015-Jul-24 23:30N 43°32' E 007°02'0 0.0
2015-Jul-24 22:19N 43°32' E 007°02'0 0.0
2015-Jul-24 21:33N 43°32' E 007°02'0 0.0
2015-Jul-24 20:31N 43°32' E 007°02'0 0.0
2015-Jul-24 19:25N 43°32' E 007°01'0 0.0
2015-Jul-24 18:34N 43°32' E 007°01'0 0.0
2015-Jul-24 17:31N 43°32' E 007°01'0 0.0
2015-Jul-24 16:29N 43°32' E 007°01'0 0.0
2015-Jul-24 15:33N 43°32' E 007°01'0 0.0
2015-Jul-24 14:26N 43°32' E 007°01'0 0.0
2015-Jul-24 13:34N 43°32' E 007°01'4 4.1
2015-Jul-24 12:33N 43°32' E 007°07'1410.4
2015-Jul-24 11:14N 43°42' E 007°20'0 0.0
2015-Jul-24 10:09N 43°42' E 007°20'0 0.0
2015-Jul-23 22:07N 43°42' E 007°20'0 0.0
2015-Jul-23 20:24N 43°42' E 007°20'0 0.0
2015-Jul-23 19:09N 43°42' E 007°20'1 1.5
2015-Jul-23 18:33N 43°41' E 007°21'1414.1
2015-Jul-23 17:33N 43°32' E 007°07'2 3.4
2015-Jul-23 17:03N 43°34' E 007°07'1 1.1
2015-Jul-23 16:33N 43°34' E 007°06'0 0.0
2015-Jul-23 15:33N 43°34' E 007°06'0 0.0
2015-Jul-23 14:33N 43°34' E 007°06'0 0.0
2015-Jul-23 13:33N 43°34' E 007°06'0 0.0
2015-Jul-23 12:33N 43°34' E 007°06'0 0.0
2015-Jul-23 11:33N 43°34' E 007°06'0 0.1
2015-Jul-23 11:30N 43°34' E 007°06'0 0.0
2015-Jul-23 10:33N 43°34' E 007°06'0 0.0
2015-Jul-23 10:14N 43°34' E 007°06'0 0.0
2015-Jul-23 09:33N 43°34' E 007°06'0 4.2
2015-Jul-23 09:33N 43°34' E 007°06'0 0.0
2015-Jul-23 08:33N 43°34' E 007°06'0 0.0
2015-Jul-23 07:33N 43°34' E 007°06'0 0.0
2015-Jul-23 07:15N 43°34' E 007°06'3 3.9
2015-Jul-23 06:31N 43°32' E 007°03'0 0.0
2015-Jul-23 05:25N 43°32' E 007°03'0 0.0
2015-Jul-23 04:31N 43°32' E 007°03'0 0.0
2015-Jul-23 03:31N 43°32' E 007°03'0 0.0
2015-Jul-23 02:31N 43°32' E 007°03'0 0.0
2015-Jul-23 01:31N 43°32' E 007°03'0 0.0
2015-Jul-23 00:25N 43°32' E 007°03'0 0.0
2015-Jul-22 23:31N 43°32' E 007°03'0 0.0
2015-Jul-22 22:31N 43°32' E 007°03'0 0.0
2015-Jul-22 21:31N 43°32' E 007°03'0 0.0
2015-Jul-22 20:31N 43°32' E 007°03'0 0.0
2015-Jul-22 18:25N 43°32' E 007°03'0 0.0
2015-Jul-22 16:31N 43°32' E 007°03'0 0.0
2015-Jul-22 11:25N 43°32' E 007°03'0 0.0
2015-Jul-22 10:25N 43°32' E 007°03'0 0.0
2015-Jul-22 09:25N 43°32' E 007°03'0 0.0
2015-Jul-22 08:31N 43°32' E 007°03'0 0.0
2015-Jul-22 07:25N 43°32' E 007°03'0 0.0
2015-Jul-22 06:25N 43°32' E 007°03'0 0.0
2015-Jul-22 05:25N 43°32' E 007°03'0 0.0
2015-Jul-22 03:25N 43°32' E 007°03'0 0.0
2015-Jul-22 02:25N 43°32' E 007°03'0 0.1
2015-Jul-22 01:31N 43°32' E 007°03'0 0.0
2015-Jul-22 00:31N 43°32' E 007°03'0 0.0
2015-Jul-21 23:31N 43°32' E 007°03'0 0.0
2015-Jul-21 22:25N 43°32' E 007°03'1 1.7
2015-Jul-21 21:33N 43°32' E 007°05'1212.4
2015-Jul-21 20:33N 43°39' E 007°19'4 3.4
2015-Jul-21 19:31N 43°42' E 007°21'0 0.0
2015-Jul-21 18:31N 43°42' E 007°21'0 0.0
2015-Jul-21 00:16N 43°42' E 007°21'3 0.1
2015-Jul-19 15:13N 43°42' E 007°17'0 0.0
2015-Jul-19 14:25N 43°42' E 007°17'0 0.0
2015-Jul-19 13:28N 43°42' E 007°17'2 1.9
2015-Jul-19 12:33N 43°40' E 007°19'  

Dump ship's entire track history